Airfield :
LOGIN :

Register | Disclaimer

   EN    FR    IT 

 










Legend :    VFR   Marginal VFR   IFR   Intensive IFR   Very Intensive IFR
Visi :
Ceiling :
>= 8 km
>= 3000ft
5 to 8 km
1000 to 3000 ft
1500m to 5 km
500 to 1000 ft
800 to 1500m
200 to 500 ft
< 800m
< 200 ft
Symbols :   Thunderstorms  Fog  Heavy snow  Heavy precipitations  Wind > 20 kt
SIGMETs :     Misc.  Thunderstorms  Icing  Turbulence  Mountain Waves  Volcanic Ashes







- Airport Elevation : 177 ft
- IATA code : AYT


LTAI - Antalya

CURRENT METAR :
  • 181050Z 07006KT 9999 -SHRA FEW020CB BKN030 14/11 Q1015 BECMG TL1200 17010KT RMK RWY18C 07004KT RWY36R 04004KT RWY18L 04003KT

EXPIRED METARs :
  • 181020Z 05005KT 9999 -SHRA FEW020CB BKN030 14/11 Q1016 BECMG TL1100 18012KT
  • 180950Z 07004KT 9999 -SHRA FEW020CB BKN030 14/11 Q1016 BECMG TL1100 18012KT
  • 180920Z 09003KT 9999 -SHRA FEW020CB BKN030 14/10 Q1017 BECMG TL1100 18012KT
  • 180906Z VRB02KT 9999 -SHRA FEW020CB BKN030 14/10 Q1017 BECMG FM1100 18012KT RMK RWY18C 00000KT RWY36R 09003KT RWY18L VRB01KT
  • 180850Z 00000KT 9999 FEW020CB BKN030 14/10 Q1017 NOSIG RMK RWY18C 00000KT RWY36R VRB01KT RWY18L 00000KT
  • 180820Z VRB02KT 9999 FEW020CB BKN030 15/10 Q1018 NOSIG RMK RWY18C VRB01KT RWY36R VRB01KT RWY18L VRB03KT

TAF TAF LTAI
Valid from the 18 at 06:00 until the 19 at 06:00 UTC


180440Z 1806/1906 VRB02KT 9999 SCT030
BECMG 1807/1811 18012KT FEW020CB BKN030
PROB40 1811/1813 -TSRA FEW015CB BKN025
BECMG 1813/1817 03008KT
PROB40
TEMPO 1813/1817 06015G25KT 2000 TSRA SCT015CB BKN025
BECMG 1817/1821 FEW020CB
BECMG 1821/1824 09012KT
PROB40
TEMPO 1902/1906 -TSRA FEW020CB BKN030
No reported NOTAMs for that airfield.



MET'MAP, your aeronautical weather chart ! - Copyright ORBIFLY December 2007 - Disclaimer

ORBIFLY MET'MAP TEAM :

Programming & Development : Alexandra Zaïnal
Concept & Development : Baudouin d'Aumeries
Co-Development & Prog : Marc-Olivier Méhu
Technical & hardware support : Manuel Goepfert

Contact : metmap@orbifly.com




SOURCES & CREDITS :

   NOAA